Startpagina
METAR-TAF:

METAR-TAF

Vliegvelden :

Aeroporto João Paulo II

Ponta Delgada, Azoren, Portugal

breedte: 37-44N, lengte: 025-42W, hoogte: 71 m

Actueel weer

Dit bericht is 41 minuten geleden gemaakt, om 09:00 UTC
Wind 2 kt uit variabele richting
Temperatuur 21°C
Vochtigheid 83%
Druk 1021 hPa
Zicht 10 km of meer
Weinig wolken op 2000 ft

METAR: LPPD 190900Z VRB02KT 9999 FEW020 21/18 Q1021

Tijdstip: 09:41 (09:41 UTC)

Verwachting

Dit bericht is 4 uur en het 41 minuten geleden gemaakt, om 05:00 UTC
Verwachting geldig van 19 om 06 UTC tot 20 om 06 UTC
Wind 5 kt uit variabele richting
Zicht 10 km of meer
Verspreide wolken op 2000 ft
Tijdelijke
van 19 om 10 UTC tot 19 om 18 UTC
Wind 8 kt uit het zuiden

TAF: LPPD 190500Z 1906/2006 VRB05KT 9999 SCT020 TEMPO 1910/1918 18008KT

Waarnemingen en weersverwachtingen van meer dan 4000 vliegvelden (METAR en TAF).

De beschikbare stations zijn de gele en rode punten op de kaart.

Ga met uw muis naar het station om de naam te zien.

Klik dan om waarnemingen en weersverwachtingen te zien.

kaart wijzigen: klik op de groene knoppen met een zwart kruis om in te zoomen, op de groene knop met een streepje om uit te zoomen of op de groene pijlen voor aangrenzende kaarten.


METAR-TAF: